Currently 60°F in Temecula, California, USA
60°F
60°F / 52°F
3 mph S
0.00"
Monday, May 20, 2024 9:03 AM PDT

Temecula, California Weather Summary
Last 36 Hours

Temperature Winds Hourly Humidity Dewpoint
Time Report Norm Report Norm Max Gusts Precip. Rpt. Norm Rpt. Norm Pressure
1,2Mon 09:03 AM  60.3°F  61°F  3 mph S  3 mph  6 mph  0.00"  74%  81%  51°F  55°F  30.01"
Mon 09:00 AM  60.1°F  61°F  1 mph S  3 mph  9 mph  0.00"  74%  82%  52°F  55°F  30.01"
Mon 08:00 AM  56.5°F  58°F  3 mph SW  2 mph  10 mph  0.00"  85%  88%  52°F  54°F  30.01"
Mon 07:00 AM  54.8°F  56°F  4 mph SW  1 mph  10 mph  0.00"  89%  92%  51°F  53°F  30.00"
Mon 06:00 AM  54.1°F  55°F  3 mph SW  1 mph  8 mph  0.00"  92%  92%  52°F  53°F  29.98"
Mon 05:00 AM  53.8°F  55°F  3 mph S  1 mph  12 mph  0.00"  93%  92%  52°F  53°F  29.97"
Mon 04:00 AM  53.8°F  56°F  2 mph S  2 mph  11 mph  0.00"  92%  91%  52°F  53°F  29.96"
Mon 03:00 AM  53.3°F  56°F  5 mph SW  1 mph  7 mph  0.00"  93%  90%  51°F  53°F  29.96"
3Mon 02:18 AM  52.2°F  57°F  1 mph SE  2 mph  4 mph  ----  92%  90%  50°F  54°F  29.96"
Mon 02:00 AM  52.4°F  57°F  4 mph S  2 mph  5 mph  0.00"  92%  90%  50°F  54°F  29.96"
Mon 01:00 AM  53.0°F  57°F  2 mph SE  2 mph  6 mph  0.00"  90%  89%  50°F  54°F  29.97"
Mon 12:00 AM  53.7°F  58°F  calm  2 mph  5 mph  0.00"  89%  87%  50°F  54°F  29.97"
Sun 11:00 PM  54.6°F  59°F  1 mph SE  2 mph  6 mph  0.00"  87%  86%  51°F  54°F  29.97"
Sun 10:00 PM  56.2°F  60°F  3 mph S  3 mph  7 mph  0.00"  84%  83%  51°F  55°F  29.98"
Sun 09:00 PM  58.2°F  61°F  2 mph SE  4 mph  9 mph  0.00"  80%  80%  52°F  55°F  29.96"
Sun 08:00 PM  60.4°F  63°F  calm  5 mph  14 mph  0.00"  75%  75%  52°F  55°F  29.95"
Sun 07:00 PM  64.0°F  67°F  9 mph SW  7 mph  18 mph  0.00"  67%  66%  53°F  55°F  29.94"
Sun 06:00 PM  66.5°F  71°F  12 mph SW  8 mph  24 mph  0.00"  63%  59%  53°F  55°F  29.93"
Sun 05:00 PM  69.8°F  74°F  10 mph SW  9 mph  24 mph  0.00"  57%  55%  53°F  56°F  29.94"
Sun 04:00 PM  69.6°F  75°F  16 mph SW  10 mph  24 mph  0.00"  58%  52%  53°F  56°F  29.96"
Sun 03:00 PM  71.5°F  76°F  15 mph W  9 mph  23 mph  0.00"  55%  52%  54°F  56°F  29.99"
Sun 02:00 PM  72.0°F  76°F  11 mph SW  9 mph  28 mph  0.00"  54%  52%  54°F  56°F  29.99"
Sun 01:00 PM  72.4°F  74°F  12 mph SW  8 mph  23 mph  0.00"  50%  54%  52°F  56°F  30.00"
Sun 12:00 PM  70.6°F  72°F  9 mph W  7 mph  16 mph  0.00"  54%  57%  53°F  56°F  30.02"
Sun 11:00 AM  65.8°F  69°F  3 mph S  5 mph  10 mph  0.00"  66%  63%  54°F  56°F  30.03"
Sun 10:00 AM  61.1°F  65°F  2 mph NE  4 mph  8 mph  0.00"  75%  72%  53°F  56°F  30.03"
Sun 09:00 AM  58.3°F  61°F  calm  3 mph  4 mph  0.00"  84%  81%  53°F  55°F  30.04"
Sun 08:00 AM  56.5°F  58°F  1 mph E  2 mph  6 mph  0.00"  90%  88%  53°F  54°F  30.05"
Sun 07:00 AM  56.1°F  56°F  3 mph W  1 mph  6 mph  0.00"  93%  91%  54°F  53°F  30.05"
Sun 06:00 AM  55.8°F  55°F  calm  1 mph  3 mph  0.00"  93%  92%  54°F  53°F  30.03"
Sun 05:00 AM  55.7°F  56°F  3 mph SE  1 mph  6 mph  0.00"  92%  91%  53°F  53°F  30.02"
Sun 04:00 AM  56.0°F  56°F  calm  2 mph  11 mph  0.00"  94%  91%  54°F  53°F  30.01"
Sun 03:00 AM  56.3°F  56°F  3 mph SW  1 mph  9 mph  0.00"  92%  90%  54°F  53°F  30.01"
Sun 02:00 AM  56.8°F  57°F  5 mph SW  2 mph  8 mph  0.00"  92%  89%  54°F  54°F  30.01"
Sun 01:00 AM  57.1°F  58°F  calm  2 mph  7 mph  0.00"  91%  88%  54°F  54°F  30.01"
Sun 12:00 AM  57.2°F  58°F  1 mph S  2 mph  7 mph  0.00"  91%  87%  54°F  54°F  30.02"
Sat 11:00 PM  57.7°F  59°F  3 mph SW  2 mph  6 mph  0.00"  90%  85%  55°F  54°F  30.02"
Sat 10:00 PM  58.1°F  60°F  3 mph SW  3 mph  8 mph  0.00"  87%  82%  54°F  55°F  30.01"

  1. Current weather data. No green row appears if the current weather data is also the high or low for the current day.
  2. High temperature for the current day.
  3. Low temperature for the current day.

The Temecula weather pages are a service of WeatherCurrents. Temecula, California is located in the Temecula Valley, in southwestern Riverside County, along the Interstate 15 highway. The Temecula Valley's rolling hills are home to the Temecula wine country, vineyards, golf courses, a casino resort, and Old Town Temecula.
Copyright ©2024  WeatherCurrents. All rights reserved. - Submit questions and comments - Privacy Policy

This page automatically refreshes every 10 minutes.